createdAt,value
2023-01-09T00:01:15.996Z,5.53
2023-01-09T00:03:44.369Z,7.27
2023-01-09T00:06:12.404Z,5.93
2023-01-09T00:08:40.361Z,5.87
2023-01-09T00:11:08.635Z,4.93
2023-01-09T00:13:36.721Z,4.27
2023-01-09T00:16:06.343Z,7.17
2023-01-09T00:18:34.325Z,8.93
2023-01-09T00:21:03.328Z,1.87
2023-01-09T00:23:31.027Z,4.00
2023-01-09T00:26:11.439Z,1.27
2023-01-09T00:28:39.714Z,1.67
2023-01-09T00:31:09.222Z,2.70
2023-01-09T00:33:41.862Z,1.97
2023-01-09T00:36:10.569Z,5.07
2023-01-09T00:38:39.970Z,11.00
2023-01-09T00:41:11.511Z,3.97
2023-01-09T00:43:45.711Z,3.35
2023-01-09T00:46:15.033Z,5.37
2023-01-09T00:48:45.150Z,4.30
2023-01-09T00:51:12.819Z,5.90
2023-01-09T00:53:43.228Z,5.03
2023-01-09T00:56:14.884Z,8.70
2023-01-09T00:58:42.720Z,5.75
2023-01-09T01:01:10.532Z,5.03
2023-01-09T01:03:38.321Z,5.60
2023-01-09T01:06:23.728Z,7.77
2023-01-09T01:08:51.427Z,5.17
2023-01-09T01:11:19.177Z,14.63
2023-01-09T01:13:46.838Z,12.73
2023-01-09T01:16:14.644Z,6.83
2023-01-09T01:18:42.688Z,5.40
2023-01-09T01:21:12.877Z,4.70
2023-01-09T01:23:40.887Z,6.30
2023-01-09T01:26:13.884Z,4.10
2023-01-09T01:28:42.341Z,4.77
2023-01-09T01:31:10.435Z,6.93
2023-01-09T01:33:38.123Z,5.33
2023-01-09T01:36:10.161Z,4.93
2023-01-09T01:38:38.651Z,12.57
2023-01-09T01:41:07.074Z,4.97
2023-01-09T01:43:56.100Z,5.40
2023-01-09T01:46:24.195Z,5.27
2023-01-09T01:49:00.608Z,6.73
2023-01-09T01:51:31.524Z,6.50
2023-01-09T01:54:03.495Z,4.63
2023-01-09T01:56:39.003Z,4.93
2023-01-09T01:59:09.767Z,4.30
2023-01-09T02:01:41.364Z,7.03
2023-01-09T02:04:09.663Z,6.75
2023-01-09T02:06:38.948Z,6.30
2023-01-09T02:09:08.042Z,7.17
2023-01-09T02:11:36.160Z,3.47
2023-01-09T02:14:04.294Z,7.53
2023-01-09T02:16:51.965Z,6.63
2023-01-09T02:20:01.642Z,3.63
2023-01-09T02:22:45.926Z,5.03
2023-01-09T02:25:13.578Z,6.30
2023-01-09T02:27:59.904Z,6.33
2023-01-09T02:30:43.885Z,5.40
2023-01-09T02:33:42.417Z,4.27
2023-01-09T02:36:34.497Z,4.30
2023-01-09T02:39:27.182Z,3.90
2023-01-09T02:42:02.095Z,4.07
2023-01-09T02:44:31.931Z,4.63
2023-01-09T02:47:18.531Z,5.53
2023-01-09T02:49:56.253Z,3.27
2023-01-09T02:52:26.724Z,17.00
2023-01-09T02:55:19.156Z,3.70
2023-01-09T02:58:11.547Z,2.17
2023-01-09T03:00:59.154Z,4.33
2023-01-09T03:03:50.133Z,4.27
2023-01-09T03:06:48.508Z,2.47
2023-01-09T03:09:23.888Z,4.13
2023-01-09T03:11:57.771Z,5.73
2023-01-09T03:14:27.384Z,3.40
2023-01-09T03:16:59.967Z,2.73
2023-01-09T03:19:31.735Z,3.23
2023-01-09T03:22:00.910Z,2.70
2023-01-09T03:24:28.608Z,7.00
2023-01-09T03:26:56.352Z,2.53
2023-01-09T03:29:24.055Z,2.77
2023-01-09T03:31:51.791Z,7.20
2023-01-09T03:34:19.514Z,8.53
2023-01-09T03:36:47.169Z,3.40
2023-01-09T03:39:14.800Z,2.07
2023-01-09T03:41:42.449Z,3.37
2023-01-09T03:44:10.117Z,3.00
2023-01-09T03:46:37.768Z,2.43
2023-01-09T03:49:05.400Z,2.17
2023-01-09T03:51:33.098Z,2.40
2023-01-09T03:54:00.753Z,2.67
2023-01-09T03:56:28.458Z,1.10
2023-01-09T03:58:56.144Z,1.20
2023-01-09T04:01:23.878Z,1.27
2023-01-09T04:03:51.736Z,1.00
2023-01-09T04:06:19.444Z,1.13
2023-01-09T04:08:47.085Z,0.33
2023-01-09T04:11:14.763Z,1.60
2023-01-09T04:13:42.469Z,2.97
2023-01-09T04:16:10.128Z,4.43
2023-01-09T04:18:37.834Z,1.07
2023-01-09T04:21:05.857Z,0.60
2023-01-09T04:23:33.554Z,1.63
2023-01-09T04:26:01.224Z,0.70
2023-01-09T04:28:28.889Z,1.90
2023-01-09T04:30:56.542Z,1.53
2023-01-09T04:33:24.184Z,1.80
2023-01-09T04:35:51.873Z,0.10
2023-01-09T04:38:20.033Z,0.80
2023-01-09T04:40:50.966Z,1.23
2023-01-09T04:43:18.673Z,0.38
2023-01-09T04:45:46.506Z,1.17
2023-01-09T04:48:14.188Z,2.13
2023-01-09T04:50:41.897Z,1.37
2023-01-09T04:53:09.781Z,0.50
2023-01-09T04:55:37.392Z,2.23
2023-01-09T04:58:05.275Z,5.10
2023-01-09T05:00:33.005Z,2.37
2023-01-09T05:03:02.840Z,2.17
2023-01-09T05:05:30.529Z,0.67
2023-01-09T05:07:58.275Z,0.70
2023-01-09T05:10:25.901Z,2.10
2023-01-09T05:12:53.645Z,0.27
2023-01-09T05:15:21.724Z,0.77
2023-01-09T05:17:49.420Z,0.50
2023-01-09T05:20:17.136Z,0.73
2023-01-09T05:22:44.852Z,0.30
2023-01-09T05:25:12.532Z,0.57
2023-01-09T05:27:40.267Z,0.10
2023-01-09T05:30:08.579Z,0.70
2023-01-09T05:32:36.293Z,0.50
2023-01-09T05:35:04.053Z,0.20
2023-01-09T05:37:31.742Z,0.87
2023-01-09T05:39:59.406Z,1.03
2023-01-09T05:42:27.089Z,1.17
2023-01-09T05:44:54.783Z,4.83
2023-01-09T05:47:22.440Z,0.63
2023-01-09T05:49:50.090Z,3.07
2023-01-09T05:52:17.693Z,3.63
2023-01-09T05:54:45.356Z,0.73
2023-01-09T05:57:12.995Z,1.07
2023-01-09T05:59:40.655Z,1.40
2023-01-09T06:02:08.442Z,1.90
2023-01-09T06:04:36.464Z,1.00
2023-01-09T06:07:04.342Z,0.67
2023-01-09T06:09:32.352Z,0.57
2023-01-09T06:12:00.005Z,0.77
2023-01-09T06:14:27.657Z,0.80
2023-01-09T06:16:55.391Z,1.53
2023-01-09T06:19:23.116Z,0.77
2023-01-09T06:21:50.821Z,0.60
2023-01-09T06:24:18.432Z,5.40
2023-01-09T06:26:46.199Z,3.37
2023-01-09T06:29:13.823Z,14.17
2023-01-09T06:31:41.507Z,2.97
2023-01-09T06:34:09.262Z,1.63
2023-01-09T06:36:36.897Z,6.90
2023-01-09T06:39:04.717Z,7.57
2023-01-09T06:41:32.346Z,15.17
2023-01-09T06:44:00.030Z,22.33
2023-01-09T06:46:27.773Z,40.80
2023-01-09T06:48:55.436Z,35.53
2023-01-09T06:51:23.066Z,13.17
2023-01-09T06:53:50.773Z,19.73
2023-01-09T06:56:20.063Z,15.70
2023-01-09T06:58:47.789Z,3.07
2023-01-09T07:01:15.630Z,5.17
2023-01-09T07:03:43.752Z,26.57
2023-01-09T07:06:11.421Z,17.77
2023-01-09T07:08:39.113Z,11.67
2023-01-09T07:11:06.940Z,19.87
2023-01-09T07:13:34.611Z,8.87
2023-01-09T07:16:03.301Z,17.33
2023-01-09T07:18:31.044Z,3.90
2023-01-09T07:20:58.728Z,8.00
2023-01-09T07:23:26.491Z,2.47
2023-01-09T07:25:54.772Z,4.43
2023-01-09T07:28:22.400Z,5.50
2023-01-09T07:30:50.120Z,3.03
2023-01-09T07:33:17.920Z,3.53
2023-01-09T07:35:45.566Z,1.97
2023-01-09T07:38:13.166Z,3.23
2023-01-09T07:40:40.852Z,2.53
2023-01-09T07:43:08.577Z,4.20
2023-01-09T07:45:36.296Z,1.93
2023-01-09T07:48:04.024Z,4.33
2023-01-09T07:50:31.681Z,3.37
2023-01-09T07:52:59.496Z,10.93
2023-01-09T07:55:27.212Z,3.67
2023-01-09T07:57:54.847Z,8.60
2023-01-09T08:00:22.814Z,3.13
2023-01-09T08:02:54.348Z,4.43
2023-01-09T08:05:22.820Z,1.77
2023-01-09T08:07:51.383Z,3.73
2023-01-09T08:10:20.195Z,4.27
2023-01-09T08:12:49.217Z,5.30
2023-01-09T08:15:17.761Z,12.83
2023-01-09T08:17:47.616Z,9.03
2023-01-09T08:20:17.542Z,3.97
2023-01-09T08:22:50.683Z,4.90
2023-01-09T08:25:19.095Z,4.93
2023-01-09T08:27:47.091Z,3.57
2023-01-09T08:30:15.668Z,5.93
2023-01-09T08:32:43.799Z,3.57
2023-01-09T08:35:11.636Z,5.47
2023-01-09T08:37:39.302Z,3.10
2023-01-09T08:40:07.454Z,1.67
2023-01-09T08:42:52.422Z,2.97
2023-01-09T08:45:37.862Z,4.33
2023-01-09T08:48:05.795Z,3.87
2023-01-09T08:50:33.489Z,3.63
2023-01-09T08:53:01.170Z,2.07
2023-01-09T08:55:29.008Z,2.57
2023-01-09T08:57:58.103Z,7.63
2023-01-09T09:00:26.301Z,4.43
2023-01-09T09:03:01.115Z,7.47
2023-01-09T09:05:30.965Z,2.53
2023-01-09T09:07:59.998Z,2.23
2023-01-09T09:10:29.737Z,2.03
2023-01-09T09:12:59.323Z,1.33
2023-01-09T09:15:30.582Z,1.87
2023-01-09T09:18:03.562Z,3.72
2023-01-09T09:20:33.232Z,3.20
2023-01-09T09:23:00.876Z,1.90
2023-01-09T09:25:28.741Z,1.00
2023-01-09T09:27:56.923Z,4.67
2023-01-09T09:30:25.593Z,3.73
2023-01-09T09:32:53.244Z,5.23
2023-01-09T09:35:22.636Z,2.70
2023-01-09T09:38:04.807Z,5.10
2023-01-09T09:41:05.476Z,6.17
2023-01-09T09:44:19.803Z,3.97
2023-01-09T09:46:59.153Z,11.90
2023-01-09T09:49:46.085Z,3.07
2023-01-09T09:52:37.074Z,3.30
2023-01-09T09:55:18.502Z,3.70
2023-01-09T09:57:47.787Z,4.03
2023-01-09T10:00:25.005Z,7.53
2023-01-09T10:03:11.345Z,2.73
2023-01-09T10:05:43.264Z,3.57
2023-01-09T10:10:55.375Z,4.47
2023-01-09T10:13:43.477Z,5.63
2023-01-09T10:16:37.328Z,2.63
2023-01-09T10:19:29.956Z,2.93
2023-01-09T10:22:31.731Z,3.00
2023-01-09T10:25:26.713Z,4.03
2023-01-09T10:28:08.305Z,1.60
2023-01-09T10:30:43.152Z,2.97
2023-01-09T10:33:35.519Z,7.77
2023-01-09T10:36:12.617Z,4.17
2023-01-09T10:38:44.417Z,4.10
2023-01-09T10:43:51.986Z,1.98
2023-01-09T10:46:26.240Z,5.57
2023-01-09T10:48:59.894Z,4.20
2023-01-09T10:51:45.051Z,5.53
2023-01-09T10:54:18.453Z,4.97
2023-01-09T10:56:54.818Z,1.43
2023-01-09T10:59:23.106Z,3.30
2023-01-09T11:01:51.114Z,4.57
2023-01-09T11:04:21.367Z,3.63
2023-01-09T11:06:53.877Z,5.50
2023-01-09T11:09:21.541Z,3.97
2023-01-09T11:11:50.892Z,4.67
2023-01-09T11:14:27.749Z,14.60
2023-01-09T11:17:05.056Z,4.43
2023-01-09T11:19:34.058Z,4.57
2023-01-09T11:22:17.820Z,3.97
2023-01-09T11:24:46.313Z,3.57
2023-01-09T11:27:13.943Z,3.03
2023-01-09T11:29:42.677Z,5.67
2023-01-09T11:32:25.440Z,2.10
2023-01-09T11:34:53.260Z,4.53
2023-01-09T11:37:27.614Z,9.33
2023-01-09T11:39:58.712Z,0.73
2023-01-09T11:42:43.159Z,1.38
2023-01-09T11:45:21.143Z,2.93
2023-01-09T11:47:48.932Z,2.10
2023-01-09T11:50:22.339Z,1.20
2023-01-09T11:53:19.205Z,3.30
2023-01-09T11:55:51.161Z,1.60
2023-01-09T11:58:22.951Z,1.23
2023-01-09T12:03:43.720Z,1.17
2023-01-09T12:06:42.875Z,2.00
2023-01-09T12:09:25.197Z,0.83
2023-01-09T12:12:05.745Z,2.77
2023-01-09T12:15:18.092Z,0.50
2023-01-09T12:18:23.665Z,1.17
2023-01-09T12:21:18.052Z,0.83
2023-01-09T12:23:55.394Z,1.03
2023-01-09T12:26:47.923Z,1.57
2023-01-09T12:29:53.262Z,0.93
2023-01-09T12:32:36.179Z,1.73
2023-01-09T12:35:18.522Z,3.93
2023-01-09T12:37:49.123Z,1.57
2023-01-09T12:40:16.799Z,1.63
2023-01-09T12:43:12.423Z,3.73
2023-01-09T12:46:14.780Z,1.27
2023-01-09T12:48:54.459Z,1.43
2023-01-09T12:51:41.667Z,1.43
2023-01-09T12:54:27.723Z,2.50
2023-01-09T12:57:02.258Z,4.53
2023-01-09T12:59:41.216Z,2.57
2023-01-09T13:02:32.709Z,3.27
2023-01-09T13:05:07.939Z,1.17
2023-01-09T13:07:43.348Z,1.57
2023-01-09T13:10:33.951Z,1.57
2023-01-09T13:13:07.096Z,2.40
2023-01-09T13:15:42.477Z,0.70
2023-01-09T13:18:26.508Z,2.10
2023-01-09T13:20:56.726Z,0.90
2023-01-09T13:23:56.309Z,0.93
2023-01-09T13:26:30.352Z,2.93
2023-01-09T13:29:10.265Z,1.10
2023-01-09T13:31:53.643Z,0.93
2023-01-09T13:34:25.264Z,0.97
2023-01-09T13:36:56.735Z,1.83
2023-01-09T13:39:28.861Z,0.90
2023-01-09T13:42:19.617Z,1.17
2023-01-09T13:44:49.559Z,1.70
2023-01-09T13:47:24.326Z,2.50
2023-01-09T13:49:52.001Z,6.53
2023-01-09T13:52:25.593Z,5.17
2023-01-09T13:54:56.011Z,2.67
2023-01-09T13:57:29.849Z,2.33
2023-01-09T14:00:20.338Z,1.50
2023-01-09T14:02:48.975Z,1.53
2023-01-09T14:05:37.829Z,1.50
2023-01-09T14:08:12.524Z,2.70
2023-01-09T14:11:07.561Z,2.53
2023-01-09T14:13:39.763Z,4.73
2023-01-09T14:16:28.099Z,2.80
2023-01-09T14:19:27.771Z,0.87
2023-01-09T14:21:58.293Z,2.67
2023-01-09T14:24:28.168Z,1.37
2023-01-09T14:26:59.071Z,1.50
2023-01-09T14:29:29.892Z,0.20
2023-01-09T14:32:28.097Z,0.50
2023-01-09T14:35:12.861Z,0.10
2023-01-09T14:37:41.849Z,0.10
2023-01-09T14:40:20.432Z,0.10
2023-01-09T14:42:52.842Z,0.00
2023-01-09T14:45:26.839Z,0.00
2023-01-09T14:48:01.732Z,2.13
2023-01-09T14:50:33.008Z,0.00
2023-01-09T14:53:21.536Z,0.00
2023-01-09T14:56:06.268Z,0.27
2023-01-09T14:58:38.099Z,0.00
2023-01-09T15:01:14.863Z,0.10
2023-01-09T15:03:45.266Z,0.00
2023-01-09T15:06:42.673Z,0.00
2023-01-09T15:09:19.469Z,0.10
2023-01-09T15:11:47.935Z,0.20
2023-01-09T15:14:45.949Z,0.00
2023-01-09T15:17:33.431Z,0.00
2023-01-09T15:20:04.651Z,0.00
2023-01-09T15:22:37.657Z,0.20
2023-01-09T15:25:40.615Z,0.00
2023-01-09T15:28:28.287Z,0.07
2023-01-09T15:31:04.587Z,0.00
2023-01-09T15:33:33.754Z,0.13
2023-01-09T15:36:14.947Z,0.10
2023-01-09T15:38:44.124Z,0.65
2023-01-09T15:41:35.648Z,0.10
2023-01-09T15:44:05.392Z,0.17
2023-01-09T15:46:33.739Z,0.20
2023-01-09T15:49:01.626Z,0.10
2023-01-09T15:51:29.784Z,0.00
2023-01-09T15:54:00.692Z,1.07
2023-01-09T15:56:30.763Z,0.13
2023-01-09T15:59:02.116Z,1.10
2023-01-09T16:01:33.840Z,0.00
2023-01-09T16:04:10.559Z,1.20
2023-01-09T16:06:45.382Z,0.10
2023-01-09T16:09:18.951Z,0.10
2023-01-09T16:11:49.205Z,0.00
2023-01-09T16:14:23.143Z,0.00
2023-01-09T16:16:53.118Z,0.50
2023-01-09T16:19:42.266Z,0.03
2023-01-09T16:22:22.058Z,0.00
2023-01-09T16:24:53.516Z,0.10
2023-01-09T16:27:30.601Z,0.20
2023-01-09T16:30:27.800Z,0.20
2023-01-09T16:32:55.492Z,0.47
2023-01-09T16:35:26.527Z,0.07
2023-01-09T16:37:54.201Z,0.10
2023-01-09T16:40:27.244Z,0.10
2023-01-09T16:43:05.560Z,0.13
2023-01-09T16:45:44.745Z,0.10
2023-01-09T16:48:14.657Z,0.30
2023-01-09T16:50:44.134Z,0.47
2023-01-09T16:53:24.114Z,0.87
2023-01-09T16:55:54.139Z,1.20
2023-01-09T16:58:33.371Z,6.13
2023-01-09T17:01:01.063Z,0.23
2023-01-09T17:03:28.810Z,0.10
2023-01-09T17:05:58.005Z,0.50
2023-01-09T17:08:26.930Z,0.23
2023-01-09T17:10:56.492Z,0.30
2023-01-09T17:13:25.420Z,0.77
2023-01-09T17:15:54.877Z,0.00
2023-01-09T17:18:24.879Z,0.00
2023-01-09T17:20:54.845Z,0.03
2023-01-09T17:23:25.696Z,0.10
2023-01-09T17:26:15.284Z,0.00
2023-01-09T17:28:51.445Z,0.37
2023-01-09T17:31:19.596Z,0.03
2023-01-09T17:33:47.355Z,0.00
2023-01-09T17:36:34.638Z,0.00
2023-01-09T17:39:03.059Z,0.10
2023-01-09T17:41:32.620Z,0.00
2023-01-09T17:44:01.198Z,0.80
2023-01-09T17:46:37.238Z,0.10
2023-01-09T17:49:06.692Z,4.37
2023-01-09T17:51:34.662Z,1.23
2023-01-09T17:54:02.344Z,0.30
2023-01-09T17:56:34.330Z,0.50
2023-01-09T17:59:02.029Z,0.40
2023-01-09T18:01:29.688Z,0.10
2023-01-09T18:03:57.383Z,0.20
2023-01-09T18:06:25.091Z,0.10
2023-01-09T18:08:52.912Z,0.27
2023-01-09T18:11:22.455Z,0.30
2023-01-09T18:13:53.620Z,0.00
2023-01-09T18:16:25.006Z,0.75
2023-01-09T18:18:55.611Z,0.10
2023-01-09T18:21:25.241Z,0.73
2023-01-09T18:23:53.097Z,0.40
2023-01-09T18:26:21.627Z,0.27
2023-01-09T18:28:52.331Z,0.10
2023-01-09T18:31:22.834Z,2.27
2023-01-09T18:33:53.325Z,5.90
2023-01-09T18:36:23.363Z,4.00
2023-01-09T18:38:53.274Z,11.67
2023-01-09T18:41:21.671Z,14.00
2023-01-09T18:43:57.798Z,6.23
2023-01-09T18:46:26.216Z,4.23
2023-01-09T18:49:02.680Z,1.83
2023-01-09T18:51:31.066Z,6.33
2023-01-09T18:53:58.846Z,0.73
2023-01-09T18:56:26.563Z,3.47
2023-01-09T18:58:58.654Z,1.73
2023-01-09T19:01:28.297Z,0.50
2023-01-09T19:03:57.145Z,0.63
2023-01-09T19:06:25.295Z,2.83
2023-01-09T19:08:53.197Z,1.33
2023-01-09T19:11:20.849Z,1.47
2023-01-09T19:13:50.553Z,1.30
2023-01-09T19:16:19.102Z,1.57
2023-01-09T19:18:46.926Z,1.90
2023-01-09T19:21:20.705Z,0.20
2023-01-09T19:23:49.483Z,0.70
2023-01-09T19:26:23.742Z,0.23
2023-01-09T19:28:55.104Z,1.20
2023-01-09T19:31:24.664Z,0.80
2023-01-09T19:33:53.209Z,1.47
2023-01-09T19:36:22.015Z,1.03
2023-01-09T19:38:49.869Z,0.43
2023-01-09T19:41:19.937Z,7.70
2023-01-09T19:43:48.850Z,7.73
2023-01-09T19:46:19.659Z,4.47
2023-01-09T19:48:48.676Z,1.70
2023-01-09T19:51:18.610Z,0.10
2023-01-09T19:53:51.359Z,0.00
2023-01-09T19:56:21.458Z,0.07
2023-01-09T19:58:54.783Z,0.30
2023-01-09T20:01:27.924Z,5.30
2023-01-09T20:03:57.830Z,0.57
2023-01-09T20:06:27.632Z,3.50
2023-01-09T20:08:57.280Z,1.50
2023-01-09T20:11:28.095Z,0.10
2023-01-09T20:13:56.577Z,0.47
2023-01-09T20:16:28.249Z,0.10
2023-01-09T20:18:57.968Z,0.10
2023-01-09T20:21:26.843Z,0.70
2023-01-09T20:23:56.874Z,0.00
2023-01-09T20:26:25.940Z,2.63
2023-01-09T20:28:54.235Z,0.10
2023-01-09T20:31:23.868Z,8.50
2023-01-09T20:33:52.092Z,0.17
2023-01-09T20:36:21.676Z,0.40
2023-01-09T20:38:49.677Z,1.23
2023-01-09T20:41:23.519Z,0.10
2023-01-09T20:43:53.405Z,1.20
2023-01-09T20:46:24.704Z,0.65
2023-01-09T20:48:52.374Z,0.03
2023-01-09T20:51:20.038Z,1.90
2023-01-09T20:53:55.528Z,0.43
2023-01-09T20:56:28.198Z,0.50
2023-01-09T20:58:56.943Z,0.43
2023-01-09T21:01:25.652Z,0.10
2023-01-09T21:03:54.755Z,0.93
2023-01-09T21:06:24.869Z,0.27
2023-01-09T21:08:53.164Z,0.30
2023-01-09T21:11:21.973Z,4.07
2023-01-09T21:13:50.421Z,0.87
2023-01-09T21:16:21.500Z,0.97
2023-01-09T21:18:50.443Z,0.50
2023-01-09T21:21:21.860Z,0.60
2023-01-09T21:23:51.854Z,0.73
2023-01-09T21:26:22.454Z,0.20
2023-01-09T21:28:51.626Z,0.10
2023-01-09T21:31:21.996Z,0.20
2023-01-09T21:33:50.032Z,0.10
2023-01-09T21:36:17.782Z,2.17
2023-01-09T21:38:46.824Z,0.60
2023-01-09T21:41:35.450Z,0.10
2023-01-09T21:44:22.702Z,0.10
2023-01-09T21:46:55.670Z,0.90
2023-01-09T21:49:25.655Z,0.70
2023-01-09T21:51:56.415Z,0.57
2023-01-09T21:54:24.979Z,0.50
2023-01-09T21:56:53.335Z,0.20
2023-01-09T21:59:21.032Z,1.23
2023-01-09T22:01:50.400Z,0.20
2023-01-09T22:04:20.517Z,0.10
2023-01-09T22:06:48.209Z,0.70
2023-01-09T22:09:16.873Z,0.60
2023-01-09T22:11:44.843Z,0.57
2023-01-09T22:14:15.003Z,0.37
2023-01-09T22:16:44.293Z,1.20
2023-01-09T22:19:13.080Z,7.53
2023-01-09T22:21:40.868Z,2.17
2023-01-09T22:24:09.029Z,0.10
2023-01-09T22:26:36.650Z,0.37
2023-01-09T22:29:04.392Z,0.40
2023-01-09T22:31:32.971Z,0.87
2023-01-09T22:34:02.337Z,0.20
2023-01-09T22:36:31.777Z,0.20
2023-01-09T22:39:00.859Z,0.57
2023-01-09T22:41:30.441Z,1.10
2023-01-09T22:43:58.487Z,0.00
2023-01-09T22:46:26.399Z,1.17
2023-01-09T22:48:54.285Z,2.93
2023-01-09T22:51:23.016Z,0.10
2023-01-09T22:53:51.897Z,0.93
2023-01-09T22:56:21.637Z,1.00
2023-01-09T22:58:54.148Z,0.40
2023-01-09T23:01:22.981Z,0.00
2023-01-09T23:03:50.842Z,0.20
2023-01-09T23:06:20.765Z,3.90
2023-01-09T23:08:50.266Z,0.10
2023-01-09T23:11:42.093Z,0.10
2023-01-09T23:14:10.390Z,0.45
2023-01-09T23:16:38.469Z,0.00
2023-01-09T23:19:09.812Z,0.20
2023-01-09T23:21:37.948Z,0.30
2023-01-09T23:24:07.351Z,0.60
2023-01-09T23:26:35.920Z,1.30
2023-01-09T23:29:06.996Z,0.50
2023-01-09T23:31:35.492Z,0.40
2023-01-09T23:34:04.691Z,0.20
2023-01-09T23:36:32.429Z,0.20
2023-01-09T23:39:00.369Z,0.10
2023-01-09T23:41:47.999Z,0.20
2023-01-09T23:44:14.686Z,0.40
2023-01-09T23:46:42.339Z,0.30
2023-01-09T23:49:10.411Z,0.00
2023-01-09T23:51:38.063Z,0.10
2023-01-09T23:54:05.954Z,0.30
2023-01-09T23:56:34.590Z,0.10
2023-01-09T23:59:03.053Z,0.77
